Airfield :
LOGIN :

Register | Disclaimer

   EN    FR    IT 

 










Legend :    VFR   Marginal VFR   IFR   Intensive IFR   Very Intensive IFR
Visi :
Ceiling :
>= 8 km
>= 3000ft
5 to 8 km
1000 to 3000 ft
1500m to 5 km
500 to 1000 ft
800 to 1500m
200 to 500 ft
< 800m
< 200 ft
Symbols :   Thunderstorms  Fog  Heavy snow  Heavy precipitations  Wind > 20 kt
SIGMETs :     Misc.  Thunderstorms  Icing  Turbulence  Mountain Waves  Volcanic Ashes






- Airport Elevation : 586 ft
- IATA code : IEV


UKKK - Zhuliany

CURRENT METAR :
  • 251230Z 23005MPS 190V250 9999 BKN047 05/M00 Q1006 R26/190060 NOSIG

EXPIRED METARs :
  • 251200Z 22004MPS 190V250 9999 SCT022 05/00 Q1007 R26/190060 NOSIG
  • 251130Z 24005MPS 200V280 9999 BKN035 05/00 Q1007 R26/290058 NOSIG
  • 251100Z 23006MPS 9999 BKN018 04/00 Q1008 R26/290058 NOSIG
  • 251030Z 24006MPS 200V270 9999 SCT017 BKN033 04/01 Q1008 R26/290058 NOSIG
  • 251000Z 23006MPS 9999 SCT015 BKN033 04/01 Q1008 R26/290058 NOSIG

TAF TAF UKKK
Valid from the 25 at 12:00 until the 26 at 12:00 UTC


251105Z 2512/2612 21006G12MPS 6000 BKN015 TX08/2612Z TN02/2605Z
TEMPO 2512/2521 18008G14MPS 1500 -SHRASN BR BKN004 SCT015CB
BECMG 2521/2523 18005G11MPS
TEMPO 2523/2607 1000 -SHRASN BR BKN003 SCT012CB



MET'MAP, your aeronautical weather chart ! - Copyright ORBIFLY December 2007 - Disclaimer

ORBIFLY MET'MAP TEAM :

Programming & Development : Alexandra Zaïnal
Concept & original design : Baudouin d'Aumeries
Assistance for programming : Marc-Olivier Méhu
Technical & hardware support : Manuel Goepfert

Contact : metmap@orbifly.com




SOURCES & CREDITS :

   NOAA